Atlantic Beach, Florida
Current Conditions -  °F | °C
As of 3:52 AM on Thursday 27 Nov 2014 (Local Time) from KNRB Reporting Station
Clear Clear  
Wind Chill:   Ceiling: Unl
Heat Index:   Visibility: 10mi
Dew Point:   Wind: 7mph
Humidity: 76%   Direction: 220°SW
Pressure: 30.2"   Gusts: NA
Location:  30.33°N, 81.4°W
Report Text: KNRB 270852Z AUTO 22006KT 10SM CLR 07/03 A3020 RMK AO2 SLP225 T00720033 58002 $
Loading
Personal Weather Stations






























Interactive Weather Map New forecast layout! Learn more

10-Day Weather Forecast

Advertisements
Track Severe Weather on mobile